createdAt,value
2023-09-03T00:00:43.385Z,4.30
2023-09-03T00:02:06.602Z,4.70
2023-09-03T00:03:10.175Z,4.30
2023-09-03T00:04:13.547Z,4.40
2023-09-03T00:05:16.521Z,4.30
2023-09-03T00:06:19.652Z,4.30
2023-09-03T00:07:22.660Z,4.50
2023-09-03T00:08:26.045Z,4.70
2023-09-03T00:09:29.050Z,4.60
2023-09-03T00:10:36.673Z,4.40
2023-09-03T00:11:40.104Z,4.50
2023-09-03T00:12:43.142Z,4.20
2023-09-03T00:13:46.148Z,4.60
2023-09-03T00:14:49.130Z,4.10
2023-09-03T00:15:52.122Z,4.50
2023-09-03T00:16:55.219Z,4.20
2023-09-03T00:17:58.919Z,4.20
2023-09-03T00:19:02.000Z,4.40
2023-09-03T00:20:05.910Z,4.50
2023-09-03T00:21:09.016Z,5.80
2023-09-03T00:22:12.142Z,4.20
2023-09-03T00:23:15.273Z,4.70
2023-09-03T00:24:18.776Z,4.20
2023-09-03T00:25:22.528Z,4.30
2023-09-03T00:26:27.779Z,4.20
2023-09-03T00:27:33.651Z,4.20
2023-09-03T00:28:36.664Z,4.30
2023-09-03T00:29:41.870Z,4.20
2023-09-03T00:30:45.081Z,4.40
2023-09-03T00:31:48.016Z,4.10
2023-09-03T00:32:51.306Z,4.20
2023-09-03T00:33:54.864Z,4.40
2023-09-03T00:34:57.802Z,4.10
2023-09-03T00:36:02.655Z,4.50
2023-09-03T00:37:06.336Z,4.20
2023-09-03T00:38:09.764Z,4.60
2023-09-03T00:39:13.429Z,4.00
2023-09-03T00:40:16.567Z,4.20
2023-09-03T00:41:19.740Z,4.70
2023-09-03T00:42:22.938Z,4.30
2023-09-03T00:43:26.009Z,4.00
2023-09-03T00:44:29.015Z,4.50
2023-09-03T00:45:32.564Z,4.00
2023-09-03T00:46:35.788Z,3.90
2023-09-03T00:47:39.572Z,4.50
2023-09-03T00:48:43.821Z,4.40
2023-09-03T00:49:47.028Z,4.50
2023-09-03T00:50:52.664Z,4.70
2023-09-03T00:51:57.214Z,4.40
2023-09-03T00:53:00.305Z,4.80
2023-09-03T00:54:04.836Z,4.10
2023-09-03T00:55:08.158Z,4.50
2023-09-03T00:56:12.000Z,4.40
2023-09-03T00:57:15.176Z,4.40
2023-09-03T00:58:20.027Z,4.00
2023-09-03T00:59:25.185Z,3.90
2023-09-03T01:00:29.167Z,4.50
2023-09-03T01:01:32.299Z,4.50
2023-09-03T01:02:36.340Z,4.80
2023-09-03T01:03:40.275Z,4.10
2023-09-03T01:04:43.321Z,4.30
2023-09-03T01:05:46.281Z,4.10
2023-09-03T01:06:51.163Z,4.30
2023-09-03T01:07:55.122Z,3.90
2023-09-03T01:08:57.997Z,4.00
2023-09-03T01:10:02.390Z,3.90
2023-09-03T01:11:11.313Z,4.50
2023-09-03T01:12:26.182Z,4.50
2023-09-03T01:13:40.188Z,3.70
2023-09-03T01:15:14.418Z,3.90
2023-09-03T01:16:29.235Z,4.20
2023-09-03T01:17:47.662Z,4.20
2023-09-03T01:18:52.520Z,4.00
2023-09-03T01:19:58.430Z,4.50
2023-09-03T01:21:35.677Z,4.00
2023-09-03T01:23:00.824Z,4.20
2023-09-03T01:24:41.781Z,4.20
2023-09-03T01:25:50.888Z,3.80
2023-09-03T01:26:57.237Z,4.00
2023-09-03T01:28:24.178Z,4.20
2023-09-03T01:29:28.384Z,4.50
2023-09-03T01:30:32.120Z,4.10
2023-09-03T01:33:02.477Z,3.90
2023-09-03T01:34:06.377Z,3.90
2023-09-03T01:35:10.214Z,4.00
2023-09-03T01:36:15.256Z,3.60
2023-09-03T01:37:18.614Z,4.10
2023-09-03T01:38:22.481Z,4.10
2023-09-03T01:39:26.531Z,4.00
2023-09-03T01:40:29.519Z,4.00
2023-09-03T01:41:38.811Z,4.60
2023-09-03T01:42:43.466Z,4.40
2023-09-03T01:43:46.635Z,4.00
2023-09-03T01:44:49.769Z,3.90
2023-09-03T01:46:02.154Z,4.00
2023-09-03T01:47:16.276Z,4.10
2023-09-03T01:48:44.905Z,3.90
2023-09-03T01:50:02.425Z,3.60
2023-09-03T01:51:35.090Z,3.80
2023-09-03T01:53:06.078Z,3.80
2023-09-03T01:54:20.417Z,4.40
2023-09-03T01:55:26.641Z,3.70
2023-09-03T01:56:33.845Z,3.80
2023-09-03T01:58:00.857Z,3.70
2023-09-03T01:59:10.678Z,3.70
2023-09-03T02:00:17.092Z,4.00
2023-09-03T02:01:24.798Z,3.80
2023-09-03T02:02:29.820Z,3.60
2023-09-03T02:03:34.139Z,3.90
2023-09-03T02:04:37.304Z,3.80
2023-09-03T02:05:40.341Z,3.50
2023-09-03T02:06:47.915Z,4.20
2023-09-03T02:07:50.880Z,3.40
2023-09-03T02:08:54.025Z,3.30
2023-09-03T02:09:57.499Z,3.80
2023-09-03T02:11:00.638Z,3.50
2023-09-03T02:12:06.675Z,3.60
2023-09-03T02:13:09.663Z,3.60
2023-09-03T02:14:12.663Z,3.30
2023-09-03T02:15:16.215Z,3.60
2023-09-03T02:16:19.254Z,3.30
2023-09-03T02:17:22.453Z,3.60
2023-09-03T02:18:25.407Z,4.00
2023-09-03T02:19:28.568Z,3.90
2023-09-03T02:20:31.564Z,3.90
2023-09-03T02:21:34.659Z,3.70
2023-09-03T02:22:37.888Z,3.60
2023-09-03T02:23:40.834Z,3.90
2023-09-03T02:24:44.123Z,3.90
2023-09-03T02:25:47.273Z,3.60
2023-09-03T02:26:50.302Z,3.40
2023-09-03T02:27:53.414Z,3.70
2023-09-03T02:28:56.918Z,3.80
2023-09-03T02:29:59.910Z,4.40
2023-09-03T02:31:04.050Z,4.00
2023-09-03T02:32:07.546Z,4.00
2023-09-03T02:33:10.985Z,3.70
2023-09-03T02:34:15.013Z,3.40
2023-09-03T02:35:18.438Z,3.40
2023-09-03T02:36:21.369Z,3.70
2023-09-03T02:37:24.401Z,3.90
2023-09-03T02:38:27.873Z,3.40
2023-09-03T02:39:30.934Z,3.50
2023-09-03T02:40:33.910Z,3.50
2023-09-03T02:41:36.907Z,3.40
2023-09-03T02:42:39.875Z,4.00
2023-09-03T02:43:42.910Z,4.00
2023-09-03T02:44:45.890Z,3.50
2023-09-03T02:45:49.195Z,3.90
2023-09-03T02:46:53.527Z,3.40
2023-09-03T02:47:56.529Z,3.40
2023-09-03T02:48:59.840Z,3.70
2023-09-03T02:50:03.150Z,3.80
2023-09-03T02:51:06.155Z,3.80
2023-09-03T02:52:09.100Z,3.60
2023-09-03T02:53:12.058Z,3.80
2023-09-03T02:54:15.135Z,3.80
2023-09-03T02:55:17.940Z,3.60
2023-09-03T02:56:20.963Z,4.10
2023-09-03T02:57:23.915Z,3.50
2023-09-03T02:58:26.817Z,3.60
2023-09-03T02:59:30.285Z,3.80
2023-09-03T03:00:34.861Z,3.60
2023-09-03T03:01:37.938Z,3.60
2023-09-03T03:02:42.669Z,3.80
2023-09-03T03:03:46.152Z,3.60
2023-09-03T03:04:49.198Z,3.70
2023-09-03T03:05:54.909Z,3.50
2023-09-03T03:06:57.850Z,3.90
2023-09-03T03:08:04.050Z,3.90
2023-09-03T03:09:07.856Z,3.60
2023-09-03T03:10:11.662Z,3.70
2023-09-03T03:11:16.936Z,3.60
2023-09-03T03:12:25.521Z,3.40
2023-09-03T03:13:28.407Z,3.60
2023-09-03T03:14:31.413Z,3.70
2023-09-03T03:15:36.592Z,4.20
2023-09-03T03:16:39.675Z,3.40
2023-09-03T03:17:47.131Z,3.90
2023-09-03T03:18:51.779Z,3.50
2023-09-03T03:19:55.829Z,4.00
2023-09-03T03:21:06.654Z,3.70
2023-09-03T03:22:09.616Z,3.50
2023-09-03T03:23:12.566Z,3.70
2023-09-03T03:24:15.505Z,3.50
2023-09-03T03:25:19.427Z,4.10
2023-09-03T03:26:22.391Z,3.80
2023-09-03T03:27:25.546Z,3.90
2023-09-03T03:28:30.753Z,3.50
2023-09-03T03:29:33.755Z,3.80
2023-09-03T03:30:36.714Z,4.00
2023-09-03T03:31:39.758Z,4.20
2023-09-03T03:32:42.773Z,3.80
2023-09-03T03:33:47.651Z,3.90
2023-09-03T03:34:51.599Z,3.80
2023-09-03T03:35:54.871Z,3.50
2023-09-03T03:36:58.096Z,3.90
2023-09-03T03:38:01.015Z,3.50
2023-09-03T03:39:04.042Z,3.90
2023-09-03T03:40:07.735Z,3.60
2023-09-03T03:41:16.501Z,3.80
2023-09-03T03:42:19.944Z,4.00
2023-09-03T03:43:23.208Z,3.90
2023-09-03T03:44:26.195Z,4.20
2023-09-03T03:45:29.270Z,3.20
2023-09-03T03:46:32.228Z,3.90
2023-09-03T03:47:35.279Z,4.10
2023-09-03T03:48:38.206Z,3.80
2023-09-03T03:49:41.174Z,3.70
2023-09-03T03:50:44.052Z,3.80
2023-09-03T03:51:46.916Z,4.00
2023-09-03T03:52:49.948Z,4.00
2023-09-03T03:53:52.895Z,3.60
2023-09-03T03:54:56.166Z,3.90
2023-09-03T03:56:10.779Z,3.60
2023-09-03T03:57:13.910Z,3.80
2023-09-03T03:58:16.973Z,3.50
2023-09-03T03:59:19.877Z,3.80
2023-09-03T04:00:22.868Z,3.30
2023-09-03T04:01:25.931Z,3.70
2023-09-03T04:02:30.181Z,3.70
2023-09-03T04:03:33.178Z,3.40
2023-09-03T04:04:36.172Z,4.00
2023-09-03T04:05:39.061Z,3.40
2023-09-03T04:06:41.898Z,3.80
2023-09-03T04:07:44.927Z,3.50
2023-09-03T04:08:48.395Z,3.60
2023-09-03T04:09:51.372Z,3.60
2023-09-03T04:11:21.701Z,3.20
2023-09-03T04:12:24.625Z,3.60
2023-09-03T04:13:28.647Z,3.30
2023-09-03T04:14:31.598Z,3.80
2023-09-03T04:15:38.512Z,4.00
2023-09-03T04:16:41.556Z,4.10
2023-09-03T04:17:44.511Z,4.00
2023-09-03T04:18:47.991Z,4.10
2023-09-03T04:19:51.603Z,3.70
2023-09-03T04:20:57.004Z,3.60
2023-09-03T04:22:01.163Z,3.60
2023-09-03T04:23:04.975Z,4.00
2023-09-03T04:24:09.513Z,3.80
2023-09-03T04:25:13.095Z,3.70
2023-09-03T04:26:16.260Z,3.40
2023-09-03T04:27:23.810Z,3.80
2023-09-03T04:28:27.545Z,3.70
2023-09-03T04:29:30.348Z,3.60
2023-09-03T04:30:36.271Z,3.60
2023-09-03T04:31:41.558Z,4.40
2023-09-03T04:32:44.539Z,3.90
2023-09-03T04:33:47.679Z,4.60
2023-09-03T04:34:52.913Z,3.90
2023-09-03T04:36:02.243Z,4.00
2023-09-03T04:37:07.554Z,3.70
2023-09-03T04:38:11.024Z,4.00
2023-09-03T04:39:13.926Z,3.50
2023-09-03T04:40:18.245Z,4.10
2023-09-03T04:41:22.200Z,4.00
2023-09-03T04:42:28.224Z,4.20
2023-09-03T04:43:31.227Z,4.00
2023-09-03T04:44:34.638Z,3.90
2023-09-03T04:45:38.405Z,3.70
2023-09-03T04:46:42.044Z,3.90
2023-09-03T04:47:45.349Z,4.00
2023-09-03T04:48:49.189Z,4.20
2023-09-03T04:49:52.214Z,3.60
2023-09-03T04:50:55.217Z,4.00
2023-09-03T04:51:58.494Z,4.10
2023-09-03T04:53:01.334Z,3.80
2023-09-03T04:54:04.343Z,3.90
2023-09-03T04:55:07.618Z,3.50
2023-09-03T04:56:13.966Z,4.00
2023-09-03T04:57:19.280Z,4.00
2023-09-03T04:58:22.291Z,4.10
2023-09-03T04:59:25.590Z,4.00
2023-09-03T05:00:29.425Z,3.60
2023-09-03T05:01:35.168Z,3.70
2023-09-03T05:02:38.961Z,3.70
2023-09-03T05:03:42.090Z,3.70
2023-09-03T05:04:45.705Z,4.00
2023-09-03T05:05:48.642Z,3.60
2023-09-03T05:06:51.557Z,4.30
2023-09-03T05:07:57.408Z,3.80
2023-09-03T05:09:00.689Z,3.40
2023-09-03T05:10:14.844Z,3.50
2023-09-03T05:11:18.507Z,4.00
2023-09-03T05:12:23.497Z,3.20
2023-09-03T05:13:26.567Z,3.50
2023-09-03T05:14:29.459Z,4.10
2023-09-03T05:15:34.326Z,3.70
2023-09-03T05:16:38.397Z,3.40
2023-09-03T05:17:41.908Z,3.50
2023-09-03T05:18:45.261Z,3.80
2023-09-03T05:19:49.566Z,3.90
2023-09-03T05:20:52.525Z,3.20
2023-09-03T05:21:56.790Z,3.50
2023-09-03T05:22:59.783Z,3.40
2023-09-03T05:24:04.126Z,3.40
2023-09-03T05:25:08.275Z,3.60
2023-09-03T05:26:11.463Z,3.60
2023-09-03T05:27:16.664Z,3.40
2023-09-03T05:28:19.841Z,3.40
2023-09-03T05:29:22.957Z,3.20
2023-09-03T05:30:27.157Z,3.50
2023-09-03T05:31:31.902Z,3.40
2023-09-03T05:32:35.389Z,3.10
2023-09-03T05:33:39.145Z,3.30
2023-09-03T05:34:42.093Z,3.90
2023-09-03T05:35:45.131Z,3.50
2023-09-03T05:36:48.684Z,3.30
2023-09-03T05:37:52.848Z,3.90
2023-09-03T05:38:55.892Z,3.60
2023-09-03T05:39:59.286Z,3.20
2023-09-03T05:41:03.665Z,3.40
2023-09-03T05:42:06.637Z,3.30
2023-09-03T05:43:09.542Z,2.90
2023-09-03T05:44:13.522Z,3.60
2023-09-03T05:45:17.013Z,3.50
2023-09-03T05:46:20.412Z,3.60
2023-09-03T05:47:23.901Z,3.40
2023-09-03T05:48:26.842Z,3.30
2023-09-03T05:49:32.302Z,3.10
2023-09-03T05:50:35.242Z,3.40
2023-09-03T05:51:38.910Z,3.70
2023-09-03T05:52:43.834Z,3.30
2023-09-03T05:53:46.916Z,3.40
2023-09-03T05:54:49.867Z,3.10
2023-09-03T05:55:52.842Z,3.00
2023-09-03T05:56:55.855Z,3.00
2023-09-03T05:57:59.481Z,3.30
2023-09-03T05:59:06.954Z,3.10
2023-09-03T06:00:11.156Z,3.10
2023-09-03T06:01:25.210Z,3.50
2023-09-03T06:02:28.135Z,3.50
2023-09-03T06:03:31.237Z,3.70
2023-09-03T06:04:34.648Z,3.50
2023-09-03T06:05:37.574Z,3.50
2023-09-03T06:06:41.047Z,3.40
2023-09-03T06:07:44.085Z,3.20
2023-09-03T06:08:47.160Z,3.00
2023-09-03T06:09:50.043Z,3.10
2023-09-03T06:10:57.364Z,2.80
2023-09-03T06:12:00.452Z,3.10
2023-09-03T06:13:03.604Z,3.20
2023-09-03T06:14:06.638Z,3.40
2023-09-03T06:15:09.710Z,2.90
2023-09-03T06:16:12.622Z,3.20
2023-09-03T06:17:16.220Z,3.30
2023-09-03T06:18:19.655Z,2.90
2023-09-03T06:19:23.680Z,3.10
2023-09-03T06:20:26.695Z,3.00
2023-09-03T06:21:30.472Z,3.10
2023-09-03T06:22:33.482Z,2.80
2023-09-03T06:23:36.320Z,3.10
2023-09-03T06:24:39.372Z,3.10
2023-09-03T06:25:43.260Z,2.90
2023-09-03T06:26:46.458Z,2.80
2023-09-03T06:27:49.484Z,3.20
2023-09-03T06:28:52.380Z,2.70
2023-09-03T06:29:55.277Z,3.00
2023-09-03T06:31:00.216Z,3.40
2023-09-03T06:32:03.432Z,2.90
2023-09-03T06:33:06.719Z,3.50
2023-09-03T06:34:09.713Z,3.20
2023-09-03T06:35:12.603Z,3.10
2023-09-03T06:36:16.413Z,2.90
2023-09-03T06:37:19.544Z,3.20
2023-09-03T06:38:22.702Z,3.00
2023-09-03T06:39:27.580Z,3.10
2023-09-03T06:40:30.539Z,2.80
2023-09-03T06:41:33.428Z,3.00
2023-09-03T06:42:37.096Z,3.30
2023-09-03T06:43:40.104Z,3.20
2023-09-03T06:44:42.980Z,3.10
2023-09-03T06:45:45.966Z,3.20
2023-09-03T06:46:48.866Z,3.10
2023-09-03T06:47:51.880Z,3.20
2023-09-03T06:48:55.534Z,3.60
2023-09-03T06:49:58.536Z,3.90
2023-09-03T06:51:01.450Z,3.40
2023-09-03T06:52:04.697Z,3.00
2023-09-03T06:53:07.585Z,3.00
2023-09-03T06:54:14.612Z,3.20
2023-09-03T06:55:19.279Z,3.60
2023-09-03T06:56:22.656Z,3.40
2023-09-03T06:57:29.521Z,3.30
2023-09-03T06:58:32.765Z,3.40
2023-09-03T06:59:35.885Z,3.60
2023-09-03T07:00:38.894Z,3.20
2023-09-03T07:01:41.931Z,2.70
2023-09-03T07:02:44.974Z,3.20
2023-09-03T07:03:47.957Z,3.00
2023-09-03T07:04:51.247Z,3.10
2023-09-03T07:05:54.675Z,3.40
2023-09-03T07:07:00.276Z,3.20
2023-09-03T07:08:06.313Z,3.10
2023-09-03T07:09:11.982Z,3.40
2023-09-03T07:10:14.963Z,3.30
2023-09-03T07:11:17.838Z,3.40
2023-09-03T07:12:20.870Z,3.30
2023-09-03T07:13:23.739Z,3.50
2023-09-03T07:14:26.658Z,3.10
2023-09-03T07:15:29.636Z,3.10
2023-09-03T07:16:33.915Z,3.20
2023-09-03T07:17:36.813Z,3.40
2023-09-03T07:18:39.819Z,3.70
2023-09-03T07:19:43.026Z,3.80
2023-09-03T07:20:45.950Z,3.30
2023-09-03T07:21:48.999Z,3.70
2023-09-03T07:22:52.153Z,3.50
2023-09-03T07:23:55.232Z,3.40
2023-09-03T07:24:58.305Z,3.90
2023-09-03T07:26:12.243Z,3.70
2023-09-03T07:27:15.239Z,4.20
2023-09-03T07:28:18.160Z,3.70
2023-09-03T07:29:21.356Z,4.10
2023-09-03T07:30:24.396Z,3.40
2023-09-03T07:31:27.243Z,3.70
2023-09-03T07:32:30.250Z,3.10
2023-09-03T07:33:33.727Z,3.10
2023-09-03T07:34:36.696Z,3.30
2023-09-03T07:35:39.602Z,3.30
2023-09-03T07:36:43.391Z,3.00
2023-09-03T07:37:46.499Z,3.20
2023-09-03T07:38:49.380Z,3.10
2023-09-03T07:39:52.328Z,3.30
2023-09-03T07:40:55.237Z,3.10
2023-09-03T07:41:58.282Z,3.00
2023-09-03T07:43:01.131Z,3.20
2023-09-03T07:44:04.777Z,3.00
2023-09-03T07:45:08.453Z,2.90
2023-09-03T07:46:11.442Z,3.30
2023-09-03T07:47:14.516Z,3.40
2023-09-03T07:48:18.401Z,3.10
2023-09-03T07:49:21.935Z,3.20
2023-09-03T07:50:25.562Z,3.00
2023-09-03T07:51:29.135Z,3.10
2023-09-03T07:52:33.633Z,2.70
2023-09-03T07:53:37.913Z,3.60
2023-09-03T07:54:41.928Z,3.40
2023-09-03T07:55:46.232Z,3.50
2023-09-03T07:56:51.141Z,3.40
2023-09-03T07:58:00.255Z,3.40
2023-09-03T07:59:04.233Z,3.00
2023-09-03T08:00:09.888Z,3.00
2023-09-03T08:01:20.711Z,3.40
2023-09-03T08:02:24.469Z,3.20
2023-09-03T08:03:33.714Z,2.80
2023-09-03T08:04:36.681Z,3.00
2023-09-03T08:05:39.644Z,3.60
2023-09-03T08:06:42.810Z,3.20
2023-09-03T08:07:46.902Z,3.00
2023-09-03T08:08:54.735Z,2.90
2023-09-03T08:09:57.866Z,3.40
2023-09-03T08:11:01.093Z,3.00
2023-09-03T08:12:04.239Z,2.90
2023-09-03T08:13:07.257Z,3.20
2023-09-03T08:14:10.204Z,3.00
2023-09-03T08:15:14.555Z,3.40
2023-09-03T08:16:17.450Z,3.10
2023-09-03T08:17:21.810Z,2.80
2023-09-03T08:18:24.685Z,3.20
2023-09-03T08:19:27.770Z,3.10
2023-09-03T08:20:30.808Z,2.70
2023-09-03T08:21:33.641Z,3.30
2023-09-03T08:22:36.735Z,2.60
2023-09-03T08:23:41.772Z,2.80
2023-09-03T08:24:44.603Z,3.10
2023-09-03T08:25:47.740Z,3.10
2023-09-03T08:26:50.573Z,2.50
2023-09-03T08:27:53.532Z,2.60
2023-09-03T08:28:56.444Z,2.90
2023-09-03T08:30:00.269Z,2.80
2023-09-03T08:31:04.069Z,2.70
2023-09-03T08:32:07.533Z,4.20
2023-09-03T08:33:11.652Z,3.70
2023-09-03T08:34:15.281Z,4.20
2023-09-03T08:35:18.298Z,2.80
2023-09-03T08:36:23.010Z,3.00
2023-09-03T08:37:27.945Z,3.00
2023-09-03T08:38:31.028Z,3.20
2023-09-03T08:39:33.905Z,2.70
2023-09-03T08:40:37.812Z,2.70
2023-09-03T08:41:41.522Z,2.70
2023-09-03T08:42:47.919Z,3.10
2023-09-03T08:43:56.173Z,2.70
2023-09-03T08:45:05.846Z,2.90
2023-09-03T08:46:11.689Z,2.40
2023-09-03T08:47:18.126Z,2.60
2023-09-03T08:48:21.076Z,3.00
2023-09-03T08:49:24.216Z,2.80
2023-09-03T08:50:27.811Z,3.70
2023-09-03T08:51:32.931Z,2.90
2023-09-03T08:52:38.359Z,3.20
2023-09-03T08:53:41.944Z,2.70
2023-09-03T08:54:44.992Z,2.80
2023-09-03T08:55:47.919Z,2.60
2023-09-03T08:56:50.846Z,3.00
2023-09-03T08:57:55.456Z,2.70
2023-09-03T08:58:58.602Z,2.70
2023-09-03T09:00:08.873Z,3.60
2023-09-03T09:01:14.577Z,2.40
2023-09-03T09:02:18.540Z,2.70
2023-09-03T09:03:26.684Z,2.50
2023-09-03T09:04:31.499Z,2.40
2023-09-03T09:05:37.062Z,2.50
2023-09-03T09:06:44.925Z,2.30
2023-09-03T09:07:49.460Z,2.40
2023-09-03T09:08:53.308Z,3.90
2023-09-03T09:10:00.031Z,2.40
2023-09-03T09:11:11.467Z,2.40
2023-09-03T09:12:23.490Z,2.70
2023-09-03T09:13:28.078Z,2.30
2023-09-03T09:15:01.203Z,2.30
2023-09-03T09:16:04.419Z,2.40
2023-09-03T09:17:14.274Z,2.00
2023-09-03T09:18:17.351Z,2.70
2023-09-03T09:19:20.708Z,2.50
2023-09-03T09:20:23.955Z,2.50
2023-09-03T09:21:26.990Z,2.10
2023-09-03T09:22:29.931Z,2.80
2023-09-03T09:23:32.995Z,2.30
2023-09-03T09:24:45.581Z,2.40
2023-09-03T09:25:48.588Z,2.50
2023-09-03T09:26:51.492Z,2.20
2023-09-03T09:27:55.821Z,2.40
2023-09-03T09:29:00.551Z,2.50
2023-09-03T09:30:11.988Z,2.30
2023-09-03T09:31:17.005Z,2.30
2023-09-03T09:32:22.895Z,2.40
2023-09-03T09:33:27.477Z,2.30
2023-09-03T09:34:42.961Z,1.90
2023-09-03T09:35:45.798Z,1.90
2023-09-03T09:36:57.704Z,2.10
2023-09-03T09:38:08.109Z,2.40
2023-09-03T09:39:11.031Z,1.80
2023-09-03T09:40:15.292Z,2.30
2023-09-03T09:41:28.446Z,2.30
2023-09-03T09:42:31.503Z,2.20
2023-09-03T09:43:47.701Z,2.10
2023-09-03T09:44:53.546Z,2.00
2023-09-03T09:45:56.895Z,2.80
2023-09-03T09:47:23.157Z,2.30
2023-09-03T09:48:29.926Z,2.00
2023-09-03T09:49:56.724Z,1.90
2023-09-03T09:51:01.682Z,2.00
2023-09-03T09:52:06.981Z,2.10
2023-09-03T09:53:25.694Z,1.90
2023-09-03T09:54:42.704Z,2.20
2023-09-03T09:55:46.343Z,1.90
2023-09-03T09:56:51.782Z,1.90
2023-09-03T09:57:57.257Z,2.10
2023-09-03T10:00:45.145Z,2.20
2023-09-03T10:01:53.535Z,2.20
2023-09-03T10:02:59.685Z,2.20
2023-09-03T10:04:05.226Z,1.90
2023-09-03T10:05:11.484Z,2.00
2023-09-03T10:06:22.898Z,1.90
2023-09-03T10:07:27.022Z,2.00
2023-09-03T10:08:32.468Z,2.00
2023-09-03T10:09:42.135Z,2.20
2023-09-03T10:10:46.764Z,2.00
2023-09-03T10:11:51.505Z,1.70
2023-09-03T10:12:54.926Z,2.20
2023-09-03T10:13:57.840Z,1.80
2023-09-03T10:15:02.095Z,1.90
2023-09-03T10:16:09.646Z,2.00
2023-09-03T10:17:16.957Z,1.70
2023-09-03T10:18:21.853Z,2.00
2023-09-03T10:19:30.396Z,2.30
2023-09-03T10:20:35.049Z,1.90
2023-09-03T10:21:52.602Z,1.90
2023-09-03T10:22:59.275Z,1.80
2023-09-03T10:24:07.003Z,1.90
2023-09-03T10:25:15.565Z,2.20
2023-09-03T10:26:27.544Z,1.70
2023-09-03T10:27:36.507Z,2.10
2023-09-03T10:28:43.235Z,1.90
2023-09-03T10:29:48.588Z,2.00
2023-09-03T10:30:55.394Z,1.90
2023-09-03T10:32:04.106Z,1.90
2023-09-03T10:33:10.257Z,1.70
2023-09-03T10:34:16.130Z,1.90
2023-09-03T10:35:19.356Z,2.00
2023-09-03T10:36:23.413Z,1.50
2023-09-03T10:37:40.573Z,1.80
2023-09-03T10:38:45.968Z,1.90
2023-09-03T10:39:49.151Z,1.60
2023-09-03T10:41:18.204Z,1.80
2023-09-03T10:42:25.157Z,1.90
2023-09-03T10:43:28.221Z,2.10
2023-09-03T10:44:34.421Z,1.70
2023-09-03T10:45:37.401Z,1.60
2023-09-03T10:47:00.078Z,2.00
2023-09-03T10:48:05.801Z,1.80
2023-09-03T10:49:08.808Z,2.10
2023-09-03T10:50:12.260Z,1.70
2023-09-03T10:51:36.612Z,1.90
2023-09-03T10:52:41.243Z,1.80
2023-09-03T10:53:44.351Z,2.20
2023-09-03T10:55:07.267Z,1.70
2023-09-03T10:56:18.572Z,2.00
2023-09-03T10:57:21.795Z,1.80
2023-09-03T10:58:31.782Z,1.60
2023-09-03T11:01:27.905Z,1.90
2023-09-03T11:02:31.017Z,1.80
2023-09-03T11:03:47.697Z,2.00
2023-09-03T11:05:20.783Z,1.90
2023-09-03T11:06:26.000Z,2.10
2023-09-03T11:07:28.888Z,1.90
2023-09-03T11:08:32.777Z,1.70
2023-09-03T11:09:35.768Z,2.00
2023-09-03T11:10:39.931Z,1.90
2023-09-03T11:11:42.876Z,1.80
2023-09-03T11:12:47.344Z,1.70
2023-09-03T11:13:51.420Z,1.80
2023-09-03T11:14:56.000Z,1.70
2023-09-03T11:15:58.978Z,1.70
2023-09-03T11:17:09.457Z,1.80
2023-09-03T11:18:12.408Z,1.80
2023-09-03T11:19:15.284Z,2.00
2023-09-03T11:20:49.321Z,1.40
2023-09-03T11:21:53.580Z,2.30
2023-09-03T11:22:56.672Z,1.70
2023-09-03T11:24:06.696Z,1.90
2023-09-03T11:25:09.671Z,1.50
2023-09-03T11:26:15.625Z,1.90
2023-09-03T11:27:18.674Z,2.00
2023-09-03T11:28:21.530Z,1.80
2023-09-03T11:29:26.108Z,2.20
2023-09-03T11:30:30.406Z,1.80
2023-09-03T11:31:47.329Z,1.70
2023-09-03T11:32:50.241Z,2.10
2023-09-03T11:33:53.496Z,2.00
2023-09-03T11:35:00.904Z,1.90
2023-09-03T11:36:04.492Z,2.20
2023-09-03T11:37:07.684Z,2.10
2023-09-03T11:38:11.757Z,1.80
2023-09-03T11:39:18.369Z,2.00
2023-09-03T11:40:30.052Z,2.20
2023-09-03T11:41:33.108Z,1.80
2023-09-03T11:42:36.265Z,1.80
2023-09-03T11:43:40.179Z,1.90
2023-09-03T11:44:43.211Z,1.80
2023-09-03T11:45:47.030Z,1.60
2023-09-03T11:47:00.235Z,1.90
2023-09-03T11:48:07.457Z,2.20
2023-09-03T11:49:10.464Z,1.80
2023-09-03T11:50:15.104Z,1.90
2023-09-03T11:51:27.843Z,1.70
2023-09-03T11:52:31.938Z,1.70
2023-09-03T11:53:44.294Z,2.00
2023-09-03T11:54:47.260Z,2.30
2023-09-03T11:55:54.070Z,1.90
2023-09-03T11:57:00.698Z,2.00
2023-09-03T11:58:07.409Z,2.70
2023-09-03T11:59:11.193Z,2.10
2023-09-03T12:00:16.047Z,2.50
2023-09-03T12:01:19.429Z,2.30
2023-09-03T12:02:23.153Z,1.70
2023-09-03T12:03:26.550Z,2.10
2023-09-03T12:04:32.895Z,2.30
2023-09-03T12:05:36.933Z,1.80
2023-09-03T12:06:41.708Z,1.80
2023-09-03T12:07:44.825Z,2.20
2023-09-03T12:08:47.647Z,2.20
2023-09-03T12:09:53.481Z,1.90
2023-09-03T12:10:56.400Z,1.80
2023-09-03T12:11:59.292Z,2.10
2023-09-03T12:13:03.521Z,2.10
2023-09-03T12:14:12.703Z,1.70
2023-09-03T12:15:22.682Z,2.40
2023-09-03T12:16:26.347Z,2.40
2023-09-03T12:17:29.855Z,2.70
2023-09-03T12:18:33.414Z,1.70
2023-09-03T12:19:43.383Z,2.10
2023-09-03T12:21:53.517Z,2.40
2023-09-03T12:22:56.481Z,2.00
2023-09-03T12:23:59.419Z,1.70
2023-09-03T12:25:06.523Z,2.20
2023-09-03T12:26:16.789Z,1.80
2023-09-03T12:27:19.761Z,1.90
2023-09-03T12:28:38.963Z,2.20
2023-09-03T12:29:52.285Z,1.50
2023-09-03T12:30:58.433Z,2.00
2023-09-03T12:32:01.454Z,1.90
2023-09-03T12:33:04.573Z,1.80
2023-09-03T12:34:07.623Z,2.20
2023-09-03T12:35:20.497Z,1.70
2023-09-03T12:36:23.577Z,1.80
2023-09-03T12:37:39.428Z,1.80
2023-09-03T12:38:55.726Z,1.50
2023-09-03T12:39:58.587Z,2.10
2023-09-03T12:41:01.513Z,2.30
2023-09-03T12:42:08.589Z,1.80
2023-09-03T12:43:11.510Z,1.80
2023-09-03T12:44:16.445Z,1.80
2023-09-03T12:45:19.418Z,2.00
2023-09-03T12:46:22.867Z,1.70
2023-09-03T12:47:25.777Z,2.40
2023-09-03T12:48:30.727Z,1.70
2023-09-03T12:49:33.703Z,1.80
2023-09-03T12:50:36.565Z,1.50
2023-09-03T12:51:40.822Z,1.70
2023-09-03T12:52:44.551Z,1.70
2023-09-03T12:53:48.682Z,1.90
2023-09-03T12:54:51.975Z,1.80
2023-09-03T12:55:56.817Z,2.20
2023-09-03T12:57:01.453Z,1.90
2023-09-03T12:58:04.697Z,1.80
2023-09-03T12:59:07.745Z,1.90
2023-09-03T13:00:11.599Z,1.90
2023-09-03T13:01:14.774Z,1.60
2023-09-03T13:02:19.211Z,2.00
2023-09-03T13:03:22.720Z,1.80
2023-09-03T13:04:26.145Z,1.80
2023-09-03T13:05:29.194Z,1.80
2023-09-03T13:06:32.294Z,1.90
2023-09-03T13:07:35.249Z,2.00
2023-09-03T13:08:39.408Z,1.60
2023-09-03T13:09:42.307Z,1.70
2023-09-03T13:10:45.186Z,1.70
2023-09-03T13:11:48.304Z,1.60
2023-09-03T13:12:51.162Z,1.80
2023-09-03T13:13:54.128Z,1.80
2023-09-03T13:14:57.134Z,1.60
2023-09-03T13:16:01.547Z,1.70
2023-09-03T13:17:04.613Z,1.70
2023-09-03T13:18:07.770Z,1.50
2023-09-03T13:19:10.759Z,1.90
2023-09-03T13:20:13.961Z,1.70
2023-09-03T13:21:17.537Z,1.40
2023-09-03T13:22:20.434Z,2.20
2023-09-03T13:23:23.728Z,1.90
2023-09-03T13:24:26.849Z,1.70
2023-09-03T13:25:35.171Z,2.10
2023-09-03T13:26:38.587Z,1.60
2023-09-03T13:27:41.391Z,1.70
2023-09-03T13:28:44.334Z,1.70
2023-09-03T13:29:47.282Z,1.40
2023-09-03T13:31:05.233Z,1.80
2023-09-03T13:32:10.480Z,1.80
2023-09-03T13:33:13.448Z,1.90
2023-09-03T13:34:16.495Z,1.70
2023-09-03T13:35:19.664Z,1.80
2023-09-03T13:36:23.161Z,1.80
2023-09-03T13:37:26.109Z,1.70
2023-09-03T13:38:29.030Z,2.10
2023-09-03T13:39:33.904Z,1.60
2023-09-03T13:40:39.856Z,1.80
2023-09-03T13:41:42.735Z,1.70
2023-09-03T13:42:45.554Z,1.50
2023-09-03T13:43:48.985Z,1.60
2023-09-03T13:44:54.784Z,1.50
2023-09-03T13:45:59.874Z,1.40
2023-09-03T13:47:03.081Z,1.80
2023-09-03T13:48:06.563Z,1.70
2023-09-03T13:49:11.031Z,1.70
2023-09-03T13:50:13.932Z,1.40
2023-09-03T13:51:16.873Z,1.60
2023-09-03T13:52:19.841Z,1.90
2023-09-03T13:53:23.117Z,2.00
2023-09-03T13:54:26.204Z,3.20
2023-09-03T13:55:29.470Z,1.70
2023-09-03T13:56:33.080Z,1.70
2023-09-03T13:57:36.192Z,1.70
2023-09-03T13:58:39.059Z,1.70
2023-09-03T13:59:43.022Z,1.40
2023-09-03T14:00:46.060Z,1.60
2023-09-03T14:01:49.182Z,1.60
2023-09-03T14:02:52.444Z,1.80
2023-09-03T14:03:56.326Z,1.50
2023-09-03T14:05:02.280Z,1.80
2023-09-03T14:06:08.912Z,1.40
2023-09-03T14:07:13.091Z,1.60
2023-09-03T14:08:17.370Z,1.90
2023-09-03T14:09:20.393Z,1.90
2023-09-03T14:10:24.090Z,1.90
2023-09-03T14:11:30.999Z,2.20
2023-09-03T14:12:34.030Z,2.10
2023-09-03T14:13:37.010Z,3.10
2023-09-03T14:14:39.905Z,2.10
2023-09-03T14:15:42.808Z,1.70
2023-09-03T14:16:45.970Z,1.70
2023-09-03T14:17:49.063Z,1.90
2023-09-03T14:18:52.020Z,1.60
2023-09-03T14:19:54.903Z,1.70
2023-09-03T14:20:57.830Z,1.90
2023-09-03T14:22:04.895Z,2.60
2023-09-03T14:23:07.782Z,2.10
2023-09-03T14:24:10.756Z,1.60
2023-09-03T14:25:13.823Z,1.80
2023-09-03T14:26:17.317Z,1.50
2023-09-03T14:27:20.326Z,1.60
2023-09-03T14:28:23.470Z,1.80
2023-09-03T14:29:27.110Z,1.80
2023-09-03T14:30:30.635Z,2.10
2023-09-03T14:31:33.525Z,1.70
2023-09-03T14:32:36.420Z,1.90
2023-09-03T14:33:39.395Z,1.90